Time,TemperatureF,DewpointF,PressureIn,WindDirection,WindDirectionDegrees,WindSpeedMPH,WindSpeedGustMPH,Humidity,HourlyPrecipIn,Conditions,Clouds,dailyrainin,SoftwareType,DateUTC
2013-01-31 00:10:00,55.3,54.0,29.25,East,95,2.0,9.0,94,0.09,,,0.01,weatherlink.com 1.10,2013-01-31 05:10:00,
2013-01-31 00:26:00,55.5,54.0,29.23,SE,145,5.0,10.0,94,0.08,,,0.03,weatherlink.com 1.10,2013-01-31 05:26:00,
2013-01-31 00:44:00,55.3,53.0,29.20,East,89,5.0,9.0,93,0.05,,,0.03,weatherlink.com 1.10,2013-01-31 05:44:00,
2013-01-31 00:58:00,55.0,53.0,29.19,ESE,107,5.0,10.0,93,0.03,,,0.03,weatherlink.com 1.10,2013-01-31 05:58:00,
2013-01-31 01:14:00,54.9,53.0,29.16,East,88,6.0,11.0,92,0.01,,,0.03,weatherlink.com 1.10,2013-01-31 06:14:00,
2013-01-31 01:30:00,55.0,53.0,29.13,East,82,6.0,11.0,92,0.01,,,0.04,weatherlink.com 1.10,2013-01-31 06:30:00,
2013-01-31 01:46:00,54.8,53.0,29.13,ENE,75,1.0,8.0,92,0.01,,,0.04,weatherlink.com 1.10,2013-01-31 06:46:00,
2013-01-31 02:02:00,54.5,53.0,29.10,ESE,105,6.0,11.0,93,0.04,,,0.07,weatherlink.com 1.10,2013-01-31 07:02:00,
2013-01-31 02:18:00,54.5,53.0,29.07,ESE,120,5.0,8.0,93,0.05,,,0.08,weatherlink.com 1.10,2013-01-31 07:18:00,
2013-01-31 02:34:00,54.6,53.0,29.05,East,97,3.0,11.0,93,0.04,,,0.08,weatherlink.com 1.10,2013-01-31 07:34:00,
2013-01-31 02:50:00,54.2,52.0,29.05,WNW,293,2.0,4.0,93,0.07,,,0.11,weatherlink.com 1.10,2013-01-31 07:50:00,
2013-01-31 03:05:00,53.5,52.0,29.02,SW,228,0.0,3.0,94,0.11,,,0.19,weatherlink.com 1.10,2013-01-31 08:05:00,
2013-01-31 03:21:00,53.2,52.0,29.00,East,94,0.0,2.0,94,0.17,,,0.25,weatherlink.com 1.10,2013-01-31 08:21:00,
2013-01-31 03:37:00,53.0,52.0,28.97,East,93,2.0,2.0,95,0.21,,,0.29,weatherlink.com 1.10,2013-01-31 08:37:00,
2013-01-31 03:53:00,53.2,52.0,28.96,East,100,3.0,6.0,95,0.18,,,0.32,weatherlink.com 1.10,2013-01-31 08:53:00,
2013-01-31 04:09:00,53.4,52.0,28.95,SE,125,3.0,5.0,95,0.16,,,0.37,weatherlink.com 1.10,2013-01-31 09:09:00,
2013-01-31 04:24:00,54.3,53.0,28.92,East,84,2.0,11.0,95,0.16,,,0.42,weatherlink.com 1.10,2013-01-31 09:24:00,
2013-01-31 04:40:00,54.9,53.0,28.94,ESE,108,3.0,10.0,94,0.14,,,0.44,weatherlink.com 1.10,2013-01-31 09:40:00,
2013-01-31 04:56:00,55.3,54.0,28.92,East,96,6.0,17.0,94,0.16,,,0.49,weatherlink.com 1.10,2013-01-31 09:56:00,
2013-01-31 05:12:00,55.7,54.0,28.91,East,98,7.0,16.0,94,0.14,,,0.52,weatherlink.com 1.10,2013-01-31 10:12:00,
2013-01-31 05:27:00,55.8,54.0,28.91,NE,56,4.0,17.0,93,0.11,,,0.54,weatherlink.com 1.10,2013-01-31 10:27:00,
2013-01-31 05:43:00,55.6,54.0,28.84,East,91,10.0,15.0,93,0.11,,,0.56,weatherlink.com 1.10,2013-01-31 10:43:00,
2013-01-31 05:59:00,55.8,54.0,28.86,ESE,119,3.0,13.0,93,0.06,,,0.56,weatherlink.com 1.10,2013-01-31 10:59:00,
2013-01-31 06:15:00,55.6,54.0,28.90,ESE,119,3.0,10.0,93,0.04,,,0.56,weatherlink.com 1.10,2013-01-31 11:15:00,
2013-01-31 06:31:00,50.3,46.0,28.99,ENE,65,24.0,50.0,86,0.12,,,0.67,weatherlink.com 1.10,2013-01-31 11:31:00,
2013-01-31 06:47:00,43.2,41.0,29.01,NW,324,17.0,25.0,92,0.14,,,0.70,weatherlink.com 1.10,2013-01-31 11:47:00,
2013-01-31 07:02:00,41.7,40.0,29.03,West,281,5.0,22.0,93,0.14,,,0.70,weatherlink.com 1.10,2013-01-31 12:02:00,
2013-01-31 07:18:00,41.2,39.0,29.04,NNW,335,7.0,17.0,93,0.14,,,0.70,weatherlink.com 1.10,2013-01-31 12:18:00,
2013-01-31 07:34:00,40.9,39.0,29.07,NNW,333,5.0,18.0,92,0.01,,,0.70,weatherlink.com 1.10,2013-01-31 12:34:00,
2013-01-31 07:50:00,40.7,39.0,29.06,NW,314,7.0,12.0,92,0.00,,,0.70,weatherlink.com 1.10,2013-01-31 12:50:00,
2013-01-31 08:06:00,40.9,38.0,29.07,NW,307,5.0,11.0,88,0.00,,,0.70,weatherlink.com 1.10,2013-01-31 13:06:00,
2013-01-31 08:21:00,40.8,37.0,29.10,NW,326,2.0,18.0,86,0.00,,,0.70,weatherlink.com 1.10,2013-01-31 13:21:00,
2013-01-31 08:38:00,40.6,37.0,29.12,NW,321,1.0,16.0,86,0.00,,,0.70,weatherlink.com 1.10,2013-01-31 13:38:00,
2013-01-31 08:53:00,40.6,35.0,29.13,WSW,255,10.0,21.0,80,0.00,,,0.70,weatherlink.com 1.10,2013-01-31 13:53:00,
2013-01-31 09:09:00,40.8,33.0,29.15,NNE,15,10.0,19.0,73,0.00,,,0.70,weatherlink.com 1.10,2013-01-31 14:09:00,
2013-01-31 09:25:00,40.6,32.0,29.17,WNW,285,5.0,24.0,72,0.00,,,0.70,weatherlink.com 1.10,2013-01-31 14:25:00,
2013-01-31 09:40:00,40.4,32.0,29.18,WNW,300,6.0,14.0,73,0.00,,,0.70,weatherlink.com 1.10,2013-01-31 14:40:00,
2013-01-31 09:56:00,40.8,32.0,29.19,WNW,286,6.0,16.0,70,0.00,,,0.70,weatherlink.com 1.10,2013-01-31 14:56:00,
2013-01-31 10:13:00,40.8,30.0,29.21,NNW,328,7.0,27.0,65,0.00,,,0.70,weatherlink.com 1.10,2013-01-31 15:13:00,
2013-01-31 10:28:00,41.1,28.0,29.22,NNW,330,5.0,30.0,59,0.00,,,0.70,weatherlink.com 1.10,2013-01-31 15:28:00,
2013-01-31 10:44:00,40.4,26.0,29.24,West,276,10.0,26.0,56,0.00,,,0.70,weatherlink.com 1.10,2013-01-31 15:44:00,
2013-01-31 11:00:00,41.2,25.0,29.25,WSW,240,4.0,24.0,53,0.00,,,0.70,weatherlink.com 1.10,2013-01-31 16:00:00,
2013-01-31 11:16:00,40.4,25.0,29.25,NW,321,6.0,29.0,54,0.00,,,0.70,weatherlink.com 1.10,2013-01-31 16:16:00,
2013-01-31 11:31:00,39.6,24.0,29.27,NNE,13,3.0,24.0,53,0.00,,,0.70,weatherlink.com 1.10,2013-01-31 16:31:00,
2013-01-31 11:47:00,40.1,24.0,29.27,NNE,27,1.0,17.0,53,0.00,,,0.70,weatherlink.com 1.10,2013-01-31 16:47:00,
2013-01-31 12:03:00,39.9,23.0,29.27,SSE,149,3.0,19.0,51,0.00,,,0.70,weatherlink.com 1.10,2013-01-31 17:03:00,
2013-01-31 12:19:00,39.2,23.0,29.29,North,357,7.0,26.0,51,0.00,,,0.70,weatherlink.com 1.10,2013-01-31 17:19:00,
2013-01-31 12:35:00,39.7,23.0,29.29,WNW,291,3.0,18.0,51,0.00,,,0.70,weatherlink.com 1.10,2013-01-31 17:35:00,
2013-01-31 12:51:00,40.7,23.0,29.29,WNW,295,13.0,23.0,48,0.00,,,0.70,weatherlink.com 1.10,2013-01-31 17:51:00,
2013-01-31 13:07:00,39.5,22.0,29.30,West,278,8.0,30.0,49,0.00,,,0.70,weatherlink.com 1.10,2013-01-31 18:07:00,
2013-01-31 13:22:00,39.1,21.0,29.31,North,360,2.0,21.0,48,0.00,,,0.70,weatherlink.com 1.10,2013-01-31 18:22:00,
2013-01-31 13:38:00,38.9,22.0,29.32,NNW,346,10.0,20.0,51,0.00,,,0.70,weatherlink.com 1.10,2013-01-31 18:38:00,
2013-01-31 13:54:00,38.0,22.0,29.33,North,349,15.0,15.0,53,0.00,,,0.70,weatherlink.com 1.10,2013-01-31 18:54:00,
2013-01-31 14:10:00,39.1,22.0,29.33,WNW,302,15.0,16.0,50,0.00,,,0.70,weatherlink.com 1.10,2013-01-31 19:10:00,
2013-01-31 14:26:00,39.9,21.0,29.34,WSW,248,5.0,20.0,46,0.00,,,0.70,weatherlink.com 1.10,2013-01-31 19:26:00,
2013-01-31 14:42:00,37.7,22.0,29.35,NNW,328,8.0,26.0,52,0.00,,,0.70,weatherlink.com 1.10,2013-01-31 19:42:00,
2013-01-31 14:58:00,37.1,22.0,29.37,WNW,293,6.0,20.0,55,0.00,,,0.70,weatherlink.com 1.10,2013-01-31 19:58:00,
2013-01-31 15:14:00,37.6,22.0,29.38,WNW,284,4.0,16.0,54,0.00,,,0.70,weatherlink.com 1.10,2013-01-31 20:14:00,
2013-01-31 15:29:00,37.6,20.0,29.39,SW,224,3.0,18.0,49,0.00,,,0.70,weatherlink.com 1.10,2013-01-31 20:29:00,
2013-01-31 15:46:00,37.0,21.0,29.40,NW,326,4.0,19.0,52,0.00,,,0.70,weatherlink.com 1.10,2013-01-31 20:46:00,
2013-01-31 16:01:00,36.1,21.0,29.41,West,270,12.0,21.0,54,0.00,,,0.70,weatherlink.com 1.10,2013-01-31 21:01:00,
2013-01-31 16:17:00,35.6,21.0,29.41,NW,313,8.0,14.0,56,0.00,,,0.70,weatherlink.com 1.10,2013-01-31 21:17:00,
2013-01-31 16:33:00,35.3,21.0,29.43,NW,314,7.0,20.0,55,0.00,,,0.70,weatherlink.com 1.10,2013-01-31 21:33:00,
2013-01-31 16:49:00,34.6,20.0,29.43,WSW,253,4.0,9.0,55,0.00,,,0.70,weatherlink.com 1.10,2013-01-31 21:49:00,
2013-01-31 17:05:00,35.2,20.0,29.44,North,8,8.0,16.0,54,0.00,,,0.70,weatherlink.com 1.10,2013-01-31 22:05:00,
2013-01-31 17:21:00,32.6,25.0,29.48,WSW,238,5.0,31.0,73,0.00,,,0.70,weatherlink.com 1.10,2013-01-31 22:21:00,
2013-01-31 17:37:00,30.4,25.0,29.48,WNW,290,5.0,10.0,81,0.00,,,0.70,weatherlink.com 1.10,2013-01-31 22:37:00,
2013-01-31 17:53:00,31.4,22.0,29.49,NW,304,6.0,17.0,69,0.00,,,0.70,weatherlink.com 1.10,2013-01-31 22:53:00,
2013-01-31 18:09:00,32.3,20.0,29.51,NW,322,1.0,20.0,61,0.00,,,0.70,weatherlink.com 1.10,2013-01-31 23:09:00,
2013-01-31 18:25:00,32.4,18.0,29.51,East,89,6.0,27.0,55,0.00,,,0.70,weatherlink.com 1.10,2013-01-31 23:25:00,
2013-01-31 18:40:00,32.5,17.0,29.52,SW,228,5.0,17.0,52,0.00,,,0.70,weatherlink.com 1.10,2013-01-31 23:40:00,
2013-01-31 18:56:00,32.1,19.0,29.53,NW,314,2.0,15.0,58,0.00,,,0.70,weatherlink.com 1.10,2013-01-31 23:56:00,
2013-01-31 19:12:00,30.6,22.0,29.55,WSW,250,4.0,22.0,71,0.00,,,0.70,weatherlink.com 1.10,2013-02-01 00:12:00,
2013-01-31 19:28:00,29.3,23.0,29.56,NNW,334,10.0,14.0,77,0.00,,,0.70,weatherlink.com 1.10,2013-02-01 00:28:00,
2013-01-31 19:44:00,28.7,23.0,29.56,NW,315,3.0,11.0,78,0.00,,,0.70,weatherlink.com 1.10,2013-02-01 00:44:00,
2013-01-31 20:00:00,28.9,22.0,29.56,NNW,330,1.0,15.0,76,0.00,,,0.70,weatherlink.com 1.10,2013-02-01 01:00:00,
2013-01-31 20:16:00,29.5,22.0,29.56,ENE,75,2.0,11.0,72,0.00,,,0.70,weatherlink.com 1.10,2013-02-01 01:16:00,
2013-01-31 20:32:00,29.0,22.0,29.57,ENE,75,2.0,12.0,76,0.00,,,0.70,weatherlink.com 1.10,2013-02-01 01:32:00,
2013-01-31 20:48:00,28.2,23.0,29.59,NNW,329,7.0,17.0,82,0.00,,,0.70,weatherlink.com 1.10,2013-02-01 01:48:00,
2013-01-31 21:03:00,27.2,24.0,29.58,WNW,283,0.0,9.0,86,0.00,,,0.70,weatherlink.com 1.10,2013-02-01 02:03:00,
2013-01-31 21:19:00,27.5,23.0,29.59,North,5,9.0,9.0,84,0.00,,,0.70,weatherlink.com 1.10,2013-02-01 02:19:00,
2013-01-31 21:35:00,27.6,23.0,29.60,ESE,108,1.0,11.0,82,0.00,,,0.70,weatherlink.com 1.10,2013-02-01 02:35:00,
2013-01-31 21:51:00,27.7,23.0,29.59,NW,317,0.0,3.0,82,0.00,,,0.70,weatherlink.com 1.10,2013-02-01 02:51:00,
2013-01-31 22:07:00,27.3,23.0,29.59,West,264,1.0,8.0,82,0.00,,,0.70,weatherlink.com 1.10,2013-02-01 03:07:00,
2013-01-31 22:23:00,27.3,22.0,29.60,WNW,288,0.0,4.0,80,0.00,,,0.70,weatherlink.com 1.10,2013-02-01 03:23:00,
2013-01-31 22:38:00,27.3,21.0,29.60,SSW,193,0.0,3.0,76,0.00,,,0.70,weatherlink.com 1.10,2013-02-01 03:38:00,
2013-01-31 22:54:00,28.1,19.0,29.60,WNW,302,5.0,9.0,67,0.00,,,0.70,weatherlink.com 1.10,2013-02-01 03:54:00,
2013-01-31 23:10:00,27.8,21.0,29.60,NNW,345,3.0,4.0,75,0.00,,,0.70,weatherlink.com 1.10,2013-02-01 04:10:00,
2013-01-31 23:26:00,26.9,21.0,29.61,NW,324,2.0,7.0,79,0.00,,,0.70,weatherlink.com 1.10,2013-02-01 04:26:00,
2013-01-31 23:42:00,26.6,21.0,29.62,NNW,333,5.0,10.0,79,0.00,,,0.70,weatherlink.com 1.10,2013-02-01 04:42:00,
2013-01-31 23:58:00,26.5,20.0,29.61,NW,309,3.0,8.0,77,0.00,,,0.70,weatherlink.com 1.10,2013-02-01 04:58:00,